Time;durP1;ratioP1;P1;durP2;ratioP2;P2;SDS_P1;SDS_P2;PMS_P1;PMS_P2;Temp;Humidity;BMP_temperature;BMP_pressure;BME280_temperature;BME280_humidity;BME280_pressure;Samples;Min_cycle;Max_cycle;Signal;HPM_P1;HPM_P2
2022/08/06 00:00:51;;;;;;;;;;;;;;;;;;5099554;28;19912;-79
2022/08/06 00:03:16;;;;;;;;;;;;;;;;;;5116444;28;19923;-79
2022/08/06 00:05:41;;;;;;;;;;;;;;;;;;5116548;28;20322;-79
2022/08/06 00:08:06;;;;;;;;;;;;;;;;;;5116371;28;19921;-79
2022/08/06 00:10:32;;;;;;;;;;;;;;;;;;5134747;28;20006;-79
2022/08/06 00:12:58;;;;;;;;;;;;;;;;;;5116314;28;19926;-80
2022/08/06 00:15:23;;;;;;;;;;;;;;;;;;5116705;28;19998;-80
2022/08/06 00:17:48;;;;;;;;;;;;;;;;;;5099378;28;20437;-80
2022/08/06 00:20:14;;;;;;;;;;;;;;;;;;5116711;28;19912;-79
2022/08/06 00:22:39;;;;;;;;;;;;;;;;;;5099472;28;20293;-80
2022/08/06 00:25:07;;;;;;;;;;;;;;;;;;5134655;28;19926;-80
2022/08/06 00:27:32;;;;;;;;;;;;;;;;;;5100157;28;19934;-79
2022/08/06 00:29:58;;;;;;;;;;;;;;;;;;5116579;28;19911;-79
2022/08/06 00:32:23;;;;;;;;;;;;;;;;;;5099200;28;19967;-80
2022/08/06 00:34:48;;;;;;;;;;;;;;;;;;5116158;28;19915;-79
2022/08/06 00:37:13;;;;;;;;;;;;;;;;;;5116203;28;20315;-80
2022/08/06 00:39:39;;;;;;;;;;;;;;;;;;5116431;28;20429;-80
2022/08/06 00:42:04;;;;;;;;;;;;;;;;;;5116902;28;19915;-79
2022/08/06 00:44:29;;;;;;;;;;;;;;;;;;5116102;28;19951;-79
2022/08/06 00:46:55;;;;;;;;;;;;;;;;;;5116347;28;19922;-80
2022/08/06 00:49:20;;;;;;;;;;;;;;;;;;5099039;28;19922;-80
2022/08/06 00:51:45;;;;;;;;;;;;;;;;;;5116181;28;20365;-79
2022/08/06 00:54:10;;;;;;;;;;;;;;;;;;5112306;28;19931;-79
2022/08/06 00:56:36;;;;;;;;;;;;;;;;;;5095597;28;19965;-80
2022/08/06 00:59:02;;;;;;;;;;;;;;;;;;5112578;28;20353;-80
2022/08/06 01:01:27;;;;;;;;;;;;;;;;;;5112625;28;19912;-80
2022/08/06 01:03:52;;;;;;;;;;;;;;;;;;5095547;28;19916;-80
2022/08/06 01:06:21;;;;;;;;;;;;;;;;;;5113991;28;20332;-79
2022/08/06 01:08:46;;;;;;;;;;;;;;;;;;5095144;28;19965;-79
2022/08/06 01:11:12;;;;;;;;;;;;;;;;;;5112463;28;19921;-80
2022/08/06 01:13:37;;;;;;;;;;;;;;;;;;5112305;28;20266;-80
2022/08/06 01:16:02;;;;;;;;;;;;;;;;;;5112634;28;19912;-80
2022/08/06 01:18:29;;;;;;;;;;;;;;;;;;5117515;28;19912;-80
2022/08/06 01:21:13;;;;;;;;;;;;;;;;;;5098970;28;19918;-80
2022/08/06 01:23:52;;;;;;;;;;;;;;;;;;5115894;28;19920;-79
2022/08/06 01:26:23;;;;;;;;;;;;;;;;;;5115865;28;19911;-80
2022/08/06 01:28:58;;;;;;;;;;;;;;;;;;5098836;28;19960;-80
2022/08/06 01:31:27;;;;;;;;;;;;;;;;;;5117066;28;19927;-80
2022/08/06 01:33:53;;;;;;;;;;;;;;;;;;5116001;28;20385;-80
2022/08/06 01:36:22;;;;;;;;;;;;;;;;;;5099016;28;19926;-80
2022/08/06 01:38:49;;;;;;;;;;;;;;;;;;5116059;28;19919;-79
2022/08/06 01:41:38;;;;;;;;;;;;;;;;;;5115741;28;19918;-80
2022/08/06 01:44:02;;;;;;;;;;;;;;;;;;5115654;28;19960;-80
2022/08/06 01:46:28;;;;;;;;;;;;;;;;;;5098499;28;19916;-79
2022/08/06 01:48:53;;;;;;;;;;;;;;;;;;5115535;28;20019;-80
2022/08/06 01:51:19;;;;;;;;;;;;;;;;;;5098482;28;19915;-80
2022/08/06 01:53:44;;;;;;;;;;;;;;;;;;5132402;27;19931;-80
2022/08/06 01:56:09;;;;;;;;;;;;;;;;;;5101782;27;19916;-79
2022/08/06 01:58:37;;;;;;;;;;;;;;;;;;5118680;27;20034;-79
2022/08/06 02:01:04;;;;;;;;;;;;;;;;;;5119097;27;19911;-79
2022/08/06 02:03:33;;;;;;;;;;;;;;;;;;5101563;27;19912;-80
2022/08/06 02:05:58;;;;;;;;;;;;;;;;;;5119247;27;19998;-79
2022/08/06 02:08:24;;;;;;;;;;;;;;;;;;5101472;27;19954;-79
2022/08/06 02:10:50;;;;;;;;;;;;;;;;;;5137064;27;19915;-79
2022/08/06 02:13:15;;;;;;;;;;;;;;;;;;5118661;27;19930;-79
2022/08/06 02:15:41;;;;;;;;;;;;;;;;;;5118545;27;19911;-80
2022/08/06 02:18:06;;;;;;;;;;;;;;;;;;5118299;27;20311;-80
2022/08/06 02:20:41;;;;;;;;;;;;;;;;;;5101219;27;19922;-80
2022/08/06 02:23:07;;;;;;;;;;;;;;;;;;5101320;27;19923;-80
2022/08/06 02:25:33;;;;;;;;;;;;;;;;;;5118232;27;19919;-80
2022/08/06 02:27:58;;;;;;;;;;;;;;;;;;5101070;27;19974;-80
2022/08/06 02:30:24;;;;;;;;;;;;;;;;;;5101068;27;19950;-80
2022/08/06 02:32:49;;;;;;;;;;;;;;;;;;5118434;27;19964;-79
2022/08/06 02:35:14;;;;;;;;;;;;;;;;;;5118183;27;19923;-79
2022/08/06 02:37:45;;;;;;;;;;;;;;;;;;5136565;27;19915;-80
2022/08/06 02:40:12;;;;;;;;;;;;;;;;;;5136839;27;19919;-80
2022/08/06 02:42:53;;;;;;;;;;;;;;;;;;5100900;27;20101;-80
2022/08/06 02:45:19;;;;;;;;;;;;;;;;;;5117905;27;19911;-79
2022/08/06 02:47:52;;;;;;;;;;;;;;;;;;5117893;27;20493;-78
2022/08/06 02:50:18;;;;;;;;;;;;;;;;;;5118101;27;19951;-79
2022/08/06 02:52:47;;;;;;;;;;;;;;;;;;5100259;27;19931;-79
2022/08/06 02:55:18;;;;;;;;;;;;;;;;;;5117924;27;19915;-79
2022/08/06 02:57:46;;;;;;;;;;;;;;;;;;5117884;27;20357;-79
2022/08/06 03:00:11;;;;;;;;;;;;;;;;;;5100419;27;20328;-79
2022/08/06 03:02:37;;;;;;;;;;;;;;;;;;5117470;27;19922;-79
2022/08/06 03:05:03;;;;;;;;;;;;;;;;;;5100398;27;19960;-79
2022/08/06 03:07:29;;;;;;;;;;;;;;;;;;5117345;27;19918;-79
2022/08/06 03:09:54;;;;;;;;;;;;;;;;;;5117374;27;19915;-79
2022/08/06 03:12:20;;;;;;;;;;;;;;;;;;5117248;27;19911;-79
2022/08/06 03:14:45;;;;;;;;;;;;;;;;;;5100084;27;19919;-79
2022/08/06 03:17:11;;;;;;;;;;;;;;;;;;5117271;27;19920;-79
2022/08/06 03:19:36;;;;;;;;;;;;;;;;;;5117184;27;19911;-79
2022/08/06 03:22:01;;;;;;;;;;;;;;;;;;5100144;27;19920;-78
2022/08/06 03:24:27;;;;;;;;;;;;;;;;;;5117100;27;19916;-78
2022/08/06 03:26:53;;;;;;;;;;;;;;;;;;5117472;27;19953;-79
2022/08/06 03:29:18;;;;;;;;;;;;;;;;;;5100216;27;19918;-79
2022/08/06 03:31:44;;;;;;;;;;;;;;;;;;5117037;27;19912;-79
2022/08/06 03:34:09;;;;;;;;;;;;;;;;;;5099738;27;19912;-79
2022/08/06 03:36:34;;;;;;;;;;;;;;;;;;5099837;27;20026;-79
2022/08/06 03:39:01;;;;;;;;;;;;;;;;;;5134701;27;19919;-79
2022/08/06 03:41:27;;;;;;;;;;;;;;;;;;5099802;27;20263;-79
2022/08/06 03:43:52;;;;;;;;;;;;;;;;;;5099677;27;19917;-79
2022/08/06 03:46:20;;;;;;;;;;;;;;;;;;5134974;27;19922;-79
2022/08/06 03:48:45;;;;;;;;;;;;;;;;;;5099625;27;19915;-78
2022/08/06 03:51:11;;;;;;;;;;;;;;;;;;5099478;27;19926;-78
2022/08/06 03:53:37;;;;;;;;;;;;;;;;;;5116411;27;19923;-78
2022/08/06 03:56:02;;;;;;;;;;;;;;;;;;5099559;27;20304;-79
2022/08/06 03:58:28;;;;;;;;;;;;;;;;;;5099459;28;19922;-78
2022/08/06 04:00:58;;;;;;;;;;;;;;;;;;5116503;28;19961;-79
2022/08/06 04:03:23;;;;;;;;;;;;;;;;;;5116424;28;19918;-78
2022/08/06 04:05:49;;;;;;;;;;;;;;;;;;5099388;28;19916;-78
2022/08/06 04:08:14;;;;;;;;;;;;;;;;;;5116297;28;19911;-78
2022/08/06 04:10:40;;;;;;;;;;;;;;;;;;5099403;28;19919;-80
2022/08/06 04:13:06;;;;;;;;;;;;;;;;;;5116569;28;20006;-80
2022/08/06 04:15:32;;;;;;;;;;;;;;;;;;5116288;28;20381;-80
2022/08/06 04:17:57;;;;;;;;;;;;;;;;;;5098840;28;19946;-79
2022/08/06 04:20:22;;;;;;;;;;;;;;;;;;5134718;28;20366;-79
2022/08/06 04:22:48;;;;;;;;;;;;;;;;;;5135350;28;19919;-79
2022/08/06 04:25:13;;;;;;;;;;;;;;;;;;5116695;28;19923;-79
2022/08/06 04:27:38;;;;;;;;;;;;;;;;;;5116223;28;19915;-79
2022/08/06 04:30:05;;;;;;;;;;;;;;;;;;5116561;28;20361;-79
2022/08/06 04:32:30;;;;;;;;;;;;;;;;;;5099061;28;19912;-79
2022/08/06 04:34:55;;;;;;;;;;;;;;;;;;5116279;28;20022;-79
2022/08/06 04:37:20;;;;;;;;;;;;;;;;;;5116233;28;20006;-79
2022/08/06 04:39:46;;;;;;;;;;;;;;;;;;5099133;28;19964;-79
2022/08/06 04:42:11;;;;;;;;;;;;;;;;;;5099147;28;19964;-80
2022/08/06 04:44:37;;;;;;;;;;;;;;;;;;5134805;28;20362;-79
2022/08/06 04:47:02;;;;;;;;;;;;;;;;;;5099455;28;19922;-80
2022/08/06 04:49:28;;;;;;;;;;;;;;;;;;5099085;28;20361;-79
2022/08/06 04:51:53;;;;;;;;;;;;;;;;;;5135695;27;19994;-80
2022/08/06 04:54:18;;;;;;;;;;;;;;;;;;5138958;27;19920;-80
2022/08/06 04:56:44;;;;;;;;;;;;;;;;;;5102822;27;19919;-80
2022/08/06 04:59:09;;;;;;;;;;;;;;;;;;5120049;27;19915;-80
2022/08/06 05:01:35;;;;;;;;;;;;;;;;;;5119934;27;19920;-79
2022/08/06 05:04:00;;;;;;;;;;;;;;;;;;5102740;27;19957;-79
2022/08/06 05:06:29;;;;;;;;;;;;;;;;;;5138126;27;19969;-80
2022/08/06 05:08:57;;;;;;;;;;;;;;;;;;5102580;27;19950;-80
2022/08/06 05:11:23;;;;;;;;;;;;;;;;;;5119989;27;19919;-79
2022/08/06 05:13:50;;;;;;;;;;;;;;;;;;5119530;27;19920;-80
2022/08/06 05:16:15;;;;;;;;;;;;;;;;;;5119617;27;20017;-79
2022/08/06 05:18:44;;;;;;;;;;;;;;;;;;5119599;27;20019;-79
2022/08/06 05:21:11;;;;;;;;;;;;;;;;;;5102277;27;19918;-80
2022/08/06 05:23:42;;;;;;;;;;;;;;;;;;5102357;27;19964;-79
2022/08/06 05:26:07;;;;;;;;;;;;;;;;;;5119388;27;19911;-80
2022/08/06 05:28:33;;;;;;;;;;;;;;;;;;5102215;27;20430;-79
2022/08/06 05:30:58;;;;;;;;;;;;;;;;;;5119608;27;19926;-80
2022/08/06 05:33:23;;;;;;;;;;;;;;;;;;5119569;27;20347;-79
2022/08/06 05:35:49;;;;;;;;;;;;;;;;;;5119109;27;20288;-80
2022/08/06 05:38:14;;;;;;;;;;;;;;;;;;5119225;27;19911;-80
2022/08/06 05:40:39;;;;;;;;;;;;;;;;;;5102013;27;19911;-80
2022/08/06 05:43:04;;;;;;;;;;;;;;;;;;5101992;27;19915;-80
2022/08/06 05:45:30;;;;;;;;;;;;;;;;;;5137416;27;19927;-80
2022/08/06 05:47:55;;;;;;;;;;;;;;;;;;5101917;27;20293;-80
2022/08/06 05:50:21;;;;;;;;;;;;;;;;;;5118956;27;20456;-80
2022/08/06 05:53:04;;;;;;;;;;;;;;;;;;5136957;27;19924;-80
2022/08/06 05:55:41;;;;;;;;;;;;;;;;;;5101708;27;19923;-80
2022/08/06 05:58:09;;;;;;;;;;;;;;;;;;5137114;27;19918;-80
2022/08/06 06:00:35;;;;;;;;;;;;;;;;;;5118759;27;19911;-80
2022/08/06 06:03:04;;;;;;;;;;;;;;;;;;5118130;27;20346;-80
2022/08/06 06:05:30;;;;;;;;;;;;;;;;;;5118755;27;19925;-80
2022/08/06 06:07:55;;;;;;;;;;;;;;;;;;5101470;27;20002;-80
2022/08/06 06:10:21;;;;;;;;;;;;;;;;;;5101422;27;19961;-80
2022/08/06 06:12:47;;;;;;;;;;;;;;;;;;5118335;27;20417;-80
2022/08/06 06:15:12;;;;;;;;;;;;;;;;;;5137102;27;20019;-79
2022/08/06 06:17:37;;;;;;;;;;;;;;;;;;5118545;27;19911;-80
2022/08/06 06:20:03;;;;;;;;;;;;;;;;;;5137013;27;20010;-79
2022/08/06 06:22:34;;;;;;;;;;;;;;;;;;5136966;27;19919;-79
2022/08/06 06:25:01;;;;;;;;;;;;;;;;;;5119209;27;19915;-79
2022/08/06 06:27:36;;;;;;;;;;;;;;;;;;5136796;27;20357;-81
2022/08/06 06:30:05;;;;;;;;;;;;;;;;;;5118051;27;19911;-80
2022/08/06 06:32:53;;;;;;;;;;;;;;;;;;5118110;27;19995;-80
2022/08/06 06:35:28;;;;;;;;;;;;;;;;;;5104858;27;19915;-80
2022/08/06 06:38:12;;;;;;;;;;;;;;;;;;5117948;27;19916;-80
2022/08/06 06:41:03;;;;;;;;;;;;;;;;;;5136315;27;20373;-79
2022/08/06 06:43:47;;;;;;;;;;;;;;;;;;5131029;27;19911;-80
2022/08/06 06:46:13;;;;;;;;;;;;;;;;;;5117723;27;19918;-79
2022/08/06 06:48:42;;;;;;;;;;;;;;;;;;5136370;27;19912;-80
2022/08/06 06:51:09;;;;;;;;;;;;;;;;;;5117558;27;19997;-80
2022/08/06 06:53:35;;;;;;;;;;;;;;;;;;5117577;27;20397;-79
2022/08/06 06:56:01;;;;;;;;;;;;;;;;;;5100652;27;19916;-80
2022/08/06 06:58:37;;;;;;;;;;;;;;;;;;5117581;27;19912;-78
2022/08/06 07:01:03;;;;;;;;;;;;;;;;;;5117572;27;19918;-79
2022/08/06 07:03:29;;;;;;;;;;;;;;;;;;5118078;27;19919;-78
2022/08/06 07:05:54;;;;;;;;;;;;;;;;;;5117386;27;19922;-78
2022/08/06 07:08:20;;;;;;;;;;;;;;;;;;5117469;27;20327;-78
2022/08/06 07:10:45;;;;;;;;;;;;;;;;;;5135708;27;20354;-78
2022/08/06 07:13:10;;;;;;;;;;;;;;;;;;5117521;27;19916;-78
2022/08/06 07:15:36;;;;;;;;;;;;;;;;;;5116790;27;19912;-78
2022/08/06 07:18:02;;;;;;;;;;;;;;;;;;5100227;27;19911;-78
2022/08/06 07:20:28;;;;;;;;;;;;;;;;;;5100182;27;19911;-78
2022/08/06 07:22:54;;;;;;;;;;;;;;;;;;5117482;27;19934;-78
2022/08/06 07:25:20;;;;;;;;;;;;;;;;;;5117160;27;19911;-78
2022/08/06 07:27:46;;;;;;;;;;;;;;;;;;5099995;27;20307;-78
2022/08/06 07:30:12;;;;;;;;;;;;;;;;;;5135373;27;20007;-78
2022/08/06 07:32:37;;;;;;;;;;;;;;;;;;5099850;27;19912;-78
2022/08/06 07:35:03;;;;;;;;;;;;;;;;;;5099882;27;19911;-78
2022/08/06 07:37:28;;;;;;;;;;;;;;;;;;5099981;27;20334;-79
2022/08/06 07:39:54;;;;;;;;;;;;;;;;;;5099810;27;20022;-78
2022/08/06 07:42:19;;;;;;;;;;;;;;;;;;5099777;27;20369;-79
2022/08/06 07:44:46;;;;;;;;;;;;;;;;;;5117272;27;19947;-79
2022/08/06 07:47:12;;;;;;;;;;;;;;;;;;5118022;27;20250;-79
2022/08/06 07:49:39;;;;;;;;;;;;;;;;;;5101090;27;20006;-79
2022/08/06 07:52:04;;;;;;;;;;;;;;;;;;5100919;27;19915;-79
2022/08/06 07:54:30;;;;;;;;;;;;;;;;;;5116779;27;19964;-79
2022/08/06 07:56:55;;;;;;;;;;;;;;;;;;5099836;27;20266;-79
2022/08/06 07:59:21;;;;;;;;;;;;;;;;;;5116905;28;19912;-79
2022/08/06 08:01:46;;;;;;;;;;;;;;;;;;5116669;28;19922;-79
2022/08/06 08:06:58;;;;;;;;;;;;;;;;;;5119337;28;20391;-79
2022/08/06 08:09:24;;;;;;;;;;;;;;;;;;5099409;28;19918;-79
2022/08/06 08:11:49;;;;;;;;;;;;;;;;;;5116486;28;19911;-79
2022/08/06 08:14:16;;;;;;;;;;;;;;;;;;5116330;28;20369;-79
2022/08/06 08:16:41;;;;;;;;;;;;;;;;;;5116303;28;19915;-79
2022/08/06 08:19:30;;;;;;;;;;;;;;;;;;5135351;28;19934;-79
2022/08/06 08:21:56;;;;;;;;;;;;;;;;;;5116270;28;19924;-79
2022/08/06 08:24:22;;;;;;;;;;;;;;;;;;5116379;28;19911;-79
2022/08/06 08:26:47;;;;;;;;;;;;;;;;;;5119746;27;20005;-79
2022/08/06 08:29:12;;;;;;;;;;;;;;;;;;5139200;27;19958;-79
2022/08/06 08:31:37;;;;;;;;;;;;;;;;;;5120505;27;19919;-79
2022/08/06 08:34:03;;;;;;;;;;;;;;;;;;5120354;27;20351;-79
2022/08/06 08:36:28;;;;;;;;;;;;;;;;;;5120435;27;19922;-79
2022/08/06 08:38:56;;;;;;;;;;;;;;;;;;5138945;27;20299;-79
2022/08/06 08:41:23;;;;;;;;;;;;;;;;;;5138635;27;20405;-79
2022/08/06 08:43:50;;;;;;;;;;;;;;;;;;5103172;27;19912;-79
2022/08/06 08:46:15;;;;;;;;;;;;;;;;;;5103006;27;19922;-79
2022/08/06 08:48:40;;;;;;;;;;;;;;;;;;5103040;27;19911;-79
2022/08/06 08:51:06;;;;;;;;;;;;;;;;;;5120198;27;19974;-79
2022/08/06 08:53:34;;;;;;;;;;;;;;;;;;5102809;27;19924;-79
2022/08/06 08:55:59;;;;;;;;;;;;;;;;;;5102992;27;19911;-79
2022/08/06 08:58:25;;;;;;;;;;;;;;;;;;5138564;27;20396;-79
2022/08/06 09:00:50;;;;;;;;;;;;;;;;;;5102875;27;19915;-79
2022/08/06 09:03:15;;;;;;;;;;;;;;;;;;5138534;27;20369;-78
2022/08/06 09:05:41;;;;;;;;;;;;;;;;;;5120494;27;19969;-79
2022/08/06 09:08:06;;;;;;;;;;;;;;;;;;5120098;27;19923;-79
2022/08/06 09:10:31;;;;;;;;;;;;;;;;;;5119921;27;19922;-79
2022/08/06 09:12:56;;;;;;;;;;;;;;;;;;5102529;27;19923;-79
2022/08/06 09:15:22;;;;;;;;;;;;;;;;;;5102597;27;19915;-79
2022/08/06 09:17:47;;;;;;;;;;;;;;;;;;5120194;27;20270;-79
2022/08/06 09:20:13;;;;;;;;;;;;;;;;;;5102461;27;20384;-79
2022/08/06 09:22:38;;;;;;;;;;;;;;;;;;5119652;27;19919;-79
2022/08/06 09:25:03;;;;;;;;;;;;;;;;;;5119379;27;19916;-79
2022/08/06 09:27:32;;;;;;;;;;;;;;;;;;5102401;27;20373;-79
2022/08/06 09:29:59;;;;;;;;;;;;;;;;;;5119394;27;19919;-79
2022/08/06 09:32:36;;;;;;;;;;;;;;;;;;5102245;27;19918;-79
2022/08/06 09:35:02;;;;;;;;;;;;;;;;;;5119174;27;19922;-79
2022/08/06 09:37:28;;;;;;;;;;;;;;;;;;5118367;27;20010;-79
2022/08/06 09:39:53;;;;;;;;;;;;;;;;;;5119558;27;19965;-79
2022/08/06 09:42:35;;;;;;;;;;;;;;;;;;5137766;27;19915;-79
2022/08/06 09:45:13;;;;;;;;;;;;;;;;;;5118916;27;20284;-79
2022/08/06 09:47:38;;;;;;;;;;;;;;;;;;5119063;27;19964;-79
2022/08/06 09:50:04;;;;;;;;;;;;;;;;;;5118944;27;19911;-79
2022/08/06 09:52:30;;;;;;;;;;;;;;;;;;5101596;27;20006;-79
2022/08/06 09:54:55;;;;;;;;;;;;;;;;;;5137181;27;20026;-78
2022/08/06 09:57:24;;;;;;;;;;;;;;;;;;5101877;27;19916;-79
2022/08/06 09:59:49;;;;;;;;;;;;;;;;;;5118771;27;20384;-78
2022/08/06 10:02:17;;;;;;;;;;;;;;;;;;5118699;27;19919;-78
2022/08/06 10:04:43;;;;;;;;;;;;;;;;;;5119453;27;19956;-78
2022/08/06 10:07:08;;;;;;;;;;;;;;;;;;5118604;27;20305;-78
2022/08/06 10:09:33;;;;;;;;;;;;;;;;;;5136939;27;19970;-78
2022/08/06 10:11:59;;;;;;;;;;;;;;;;;;5118530;27;19918;-78
2022/08/06 10:14:24;;;;;;;;;;;;;;;;;;5101324;27;19922;-78
2022/08/06 10:17:08;;;;;;;;;;;;;;;;;;5137358;27;20307;-78
2022/08/06 10:19:33;;;;;;;;;;;;;;;;;;5118300;27;20281;-78
2022/08/06 10:22:04;;;;;;;;;;;;;;;;;;5118311;27;19919;-79
2022/08/06 10:24:30;;;;;;;;;;;;;;;;;;5136534;27;19941;-78
2022/08/06 10:26:56;;;;;;;;;;;;;;;;;;5118184;27;19916;-78
2022/08/06 10:29:21;;;;;;;;;;;;;;;;;;5136879;27;19934;-78
2022/08/06 10:31:46;;;;;;;;;;;;;;;;;;5118237;27;19916;-78
2022/08/06 10:34:13;;;;;;;;;;;;;;;;;;5118328;27;20341;-79
2022/08/06 10:36:40;;;;;;;;;;;;;;;;;;5101074;27;20010;-79
2022/08/06 10:39:05;;;;;;;;;;;;;;;;;;5118265;27;19915;-78
2022/08/06 10:41:31;;;;;;;;;;;;;;;;;;5100844;27;19919;-78
2022/08/06 10:43:56;;;;;;;;;;;;;;;;;;5118013;27;19965;-79
2022/08/06 10:46:21;;;;;;;;;;;;;;;;;;5100752;27;19923;-79
2022/08/06 10:48:47;;;;;;;;;;;;;;;;;;5117803;27;19958;-79
2022/08/06 10:51:13;;;;;;;;;;;;;;;;;;5117608;27;20006;-79
2022/08/06 10:53:40;;;;;;;;;;;;;;;;;;5135859;27;20324;-78
2022/08/06 10:56:07;;;;;;;;;;;;;;;;;;5100579;27;20309;-78
2022/08/06 10:58:33;;;;;;;;;;;;;;;;;;5117865;27;19912;-79
2022/08/06 11:00:58;;;;;;;;;;;;;;;;;;5136208;27;19915;-79
2022/08/06 11:03:30;;;;;;;;;;;;;;;;;;5117591;27;20362;-79
2022/08/06 11:05:58;;;;;;;;;;;;;;;;;;5100448;27;19922;-78
2022/08/06 11:08:29;;;;;;;;;;;;;;;;;;5117796;27;19911;-79
2022/08/06 11:11:30;;;;;;;;;;;;;;;;;;5117301;27;20010;-78
2022/08/06 11:14:08;;;;;;;;;;;;;;;;;;5032933;28;20275;-79
2022/08/06 11:16:35;;;;;;;;;;;;;;;;;;4999822;28;19935;-78
2022/08/06 11:19:10;;;;;;;;;;;;;;;;;;4999740;28;19913;-79
2022/08/06 11:21:38;;;;;;;;;;;;;;;;;;4999373;28;19925;-79
2022/08/06 11:24:03;;;;;;;;;;;;;;;;;;5032490;28;19920;-79
2022/08/06 11:26:39;;;;;;;;;;;;;;;;;;5032410;28;19917;-79
2022/08/06 11:29:08;;;;;;;;;;;;;;;;;;4999410;28;20368;-78
2022/08/06 11:31:34;;;;;;;;;;;;;;;;;;4999479;28;19913;-79
2022/08/06 11:34:00;;;;;;;;;;;;;;;;;;5015592;28;20423;-79
2022/08/06 11:36:26;;;;;;;;;;;;;;;;;;4999308;28;19913;-78
2022/08/06 11:38:54;;;;;;;;;;;;;;;;;;5032179;28;19920;-78
2022/08/06 11:41:21;;;;;;;;;;;;;;;;;;5032511;28;19913;-78
2022/08/06 11:43:47;;;;;;;;;;;;;;;;;;5032058;28;19952;-79
2022/08/06 11:46:24;;;;;;;;;;;;;;;;;;5031985;28;19913;-79
2022/08/06 11:48:59;;;;;;;;;;;;;;;;;;5124283;27;19911;-78
2022/08/06 11:51:37;;;;;;;;;;;;;;;;;;5135007;27;20036;-79
2022/08/06 11:54:11;;;;;;;;;;;;;;;;;;5099527;27;19977;-79
2022/08/06 11:56:55;;;;;;;;;;;;;;;;;;5116678;27;19934;-79
2022/08/06 11:59:21;;;;;;;;;;;;;;;;;;5116650;28;19923;-78
2022/08/06 12:01:46;;;;;;;;;;;;;;;;;;5134590;27;19915;-78
2022/08/06 12:04:30;;;;;;;;;;;;;;;;;;5116640;27;20362;-78
2022/08/06 12:07:15;;;;;;;;;;;;;;;;;;5116524;28;20293;-78
2022/08/06 12:09:40;;;;;;;;;;;;;;;;;;5135114;28;19923;-78
2022/08/06 12:12:24;;;;;;;;;;;;;;;;;;5116372;28;19926;-78
2022/08/06 12:14:49;;;;;;;;;;;;;;;;;;5116286;28;20373;-78
2022/08/06 12:17:14;;;;;;;;;;;;;;;;;;5116408;28;19915;-78
2022/08/06 12:19:44;;;;;;;;;;;;;;;;;;5116445;28;19923;-79
2022/08/06 12:22:09;;;;;;;;;;;;;;;;;;5116817;28;20002;-78
2022/08/06 12:24:35;;;;;;;;;;;;;;;;;;5134978;28;20415;-79
2022/08/06 12:27:00;;;;;;;;;;;;;;;;;;5099352;28;19915;-79
2022/08/06 12:29:29;;;;;;;;;;;;;;;;;;5099253;28;19954;-79
2022/08/06 12:31:54;;;;;;;;;;;;;;;;;;5099354;28;20349;-79
2022/08/06 12:34:24;;;;;;;;;;;;;;;;;;5116337;28;19971;-79
2022/08/06 12:36:49;;;;;;;;;;;;;;;;;;5116859;28;19912;-78
2022/08/06 12:39:15;;;;;;;;;;;;;;;;;;5116369;28;20400;-78
2022/08/06 12:41:41;;;;;;;;;;;;;;;;;;5137006;28;19915;-79
2022/08/06 12:44:06;;;;;;;;;;;;;;;;;;5106359;28;19921;-79
2022/08/06 12:46:32;;;;;;;;;;;;;;;;;;5120077;28;19912;-79
2022/08/06 12:48:57;;;;;;;;;;;;;;;;;;5099530;28;19912;-79
2022/08/06 12:51:22;;;;;;;;;;;;;;;;;;5116426;28;19926;-79
2022/08/06 12:53:49;;;;;;;;;;;;;;;;;;5099020;28;19926;-79
2022/08/06 12:56:15;;;;;;;;;;;;;;;;;;5099084;28;20327;-79
2022/08/06 12:58:41;;;;;;;;;;;;;;;;;;5116130;28;19911;-79
2022/08/06 13:01:06;;;;;;;;;;;;;;;;;;5134406;28;19919;-79
2022/08/06 13:03:32;;;;;;;;;;;;;;;;;;5116142;28;19912;-79
2022/08/06 13:06:01;;;;;;;;;;;;;;;;;;5099111;28;19918;-78
2022/08/06 13:08:27;;;;;;;;;;;;;;;;;;5116322;28;19912;-79
2022/08/06 13:10:54;;;;;;;;;;;;;;;;;;5098895;28;19922;-79
2022/08/06 13:13:19;;;;;;;;;;;;;;;;;;5118333;27;19946;-79
2022/08/06 13:16:04;;;;;;;;;;;;;;;;;;5102636;27;20370;-79
2022/08/06 13:18:30;;;;;;;;;;;;;;;;;;5120283;27;19916;-79
2022/08/06 13:20:55;;;;;;;;;;;;;;;;;;5119692;27;19968;-78
2022/08/06 13:23:31;;;;;;;;;;;;;;;;;;5119532;27;19972;-78
2022/08/06 13:25:57;;;;;;;;;;;;;;;;;;5119729;27;19964;-78
2022/08/06 13:28:23;;;;;;;;;;;;;;;;;;5119421;27;19915;-78
2022/08/06 13:30:49;;;;;;;;;;;;;;;;;;5102360;27;19951;-79
2022/08/06 13:33:24;;;;;;;;;;;;;;;;;;5119305;27;19966;-78
2022/08/06 13:35:50;;;;;;;;;;;;;;;;;;5102251;27;19998;-79
2022/08/06 13:38:27;;;;;;;;;;;;;;;;;;5119288;27;20356;-78
2022/08/06 13:40:53;;;;;;;;;;;;;;;;;;5119146;27;19958;-79
2022/08/06 13:43:19;;;;;;;;;;;;;;;;;;5138070;27;20266;-79
2022/08/06 13:45:44;;;;;;;;;;;;;;;;;;5119454;27;19912;-78
2022/08/06 13:48:10;;;;;;;;;;;;;;;;;;5119053;27;19979;-79
2022/08/06 13:50:38;;;;;;;;;;;;;;;;;;5119240;27;19941;-79
2022/08/06 13:53:03;;;;;;;;;;;;;;;;;;5136937;27;19923;-79
2022/08/06 13:55:31;;;;;;;;;;;;;;;;;;5101726;27;19922;-79
2022/08/06 13:57:57;;;;;;;;;;;;;;;;;;5119377;27;19915;-79
2022/08/06 14:00:22;;;;;;;;;;;;;;;;;;5118836;27;19915;-78
2022/08/06 14:02:48;;;;;;;;;;;;;;;;;;5101683;27;19918;-79
2022/08/06 14:05:13;;;;;;;;;;;;;;;;;;5119125;27;19926;-78
2022/08/06 14:07:38;;;;;;;;;;;;;;;;;;5118984;27;20323;-78
2022/08/06 14:10:04;;;;;;;;;;;;;;;;;;5118700;27;20002;-78
2022/08/06 14:12:29;;;;;;;;;;;;;;;;;;5101567;27;19911;-78
2022/08/06 14:14:54;;;;;;;;;;;;;;;;;;5101393;27;19950;-78
2022/08/06 14:17:19;;;;;;;;;;;;;;;;;;5101366;27;19966;-78
2022/08/06 14:19:45;;;;;;;;;;;;;;;;;;5118482;27;19944;-80
2022/08/06 14:22:10;;;;;;;;;;;;;;;;;;5101315;27;19919;-79
2022/08/06 14:24:35;;;;;;;;;;;;;;;;;;5136666;27;19926;-79
2022/08/06 14:27:01;;;;;;;;;;;;;;;;;;5101582;27;19911;-78
2022/08/06 14:29:26;;;;;;;;;;;;;;;;;;5101424;27;19911;-78
2022/08/06 14:31:51;;;;;;;;;;;;;;;;;;5136798;27;19915;-79
2022/08/06 14:34:17;;;;;;;;;;;;;;;;;;5118101;27;20407;-78
2022/08/06 14:36:42;;;;;;;;;;;;;;;;;;5136466;27;19919;-79
2022/08/06 14:39:11;;;;;;;;;;;;;;;;;;5118105;27;20010;-78
2022/08/06 14:47:06;;;;;;;;;;;;;;;;;;5136191;27;19930;-79
2022/08/06 14:49:32;;;;;;;;;;;;;;;;;;5101044;27;19998;-78
2022/08/06 14:51:57;;;;;;;;;;;;;;;;;;5117701;27;20014;-78
2022/08/06 14:54:23;;;;;;;;;;;;;;;;;;5101397;27;20283;-79
2022/08/06 14:56:49;;;;;;;;;;;;;;;;;;5100650;27;19916;-79
2022/08/06 14:59:14;;;;;;;;;;;;;;;;;;5117756;27;20288;-79
2022/08/06 15:01:39;;;;;;;;;;;;;;;;;;5100504;27;19937;-79
2022/08/06 15:04:05;;;;;;;;;;;;;;;;;;5117635;27;19954;-79
2022/08/06 15:06:30;;;;;;;;;;;;;;;;;;5100500;27;19915;-79
2022/08/06 15:08:55;;;;;;;;;;;;;;;;;;5117848;27;20385;-79
2022/08/06 15:11:21;;;;;;;;;;;;;;;;;;5100387;27;19944;-79
2022/08/06 15:13:46;;;;;;;;;;;;;;;;;;5117261;27;19919;-79
2022/08/06 15:16:11;;;;;;;;;;;;;;;;;;5100248;27;19996;-79
2022/08/06 15:18:36;;;;;;;;;;;;;;;;;;5117352;27;20388;-79
2022/08/06 15:21:02;;;;;;;;;;;;;;;;;;5117070;27;19923;-79
2022/08/06 15:23:27;;;;;;;;;;;;;;;;;;5135445;27;19923;-79
2022/08/06 15:25:52;;;;;;;;;;;;;;;;;;5117475;27;19911;-79
2022/08/06 15:28:18;;;;;;;;;;;;;;;;;;5135419;27;19919;-79
2022/08/06 15:30:43;;;;;;;;;;;;;;;;;;5099975;27;19926;-79
2022/08/06 15:33:08;;;;;;;;;;;;;;;;;;5116964;27;19954;-79
2022/08/06 15:35:34;;;;;;;;;;;;;;;;;;5134520;27;20381;-79
2022/08/06 15:37:59;;;;;;;;;;;;;;;;;;5117087;27;19915;-79
2022/08/06 15:40:24;;;;;;;;;;;;;;;;;;5116854;27;19951;-79
2022/08/06 15:42:49;;;;;;;;;;;;;;;;;;5116811;27;19941;-79
2022/08/06 15:45:15;;;;;;;;;;;;;;;;;;5116720;27;19919;-79
2022/08/06 15:47:40;;;;;;;;;;;;;;;;;;5099995;27;20392;-79
2022/08/06 15:50:05;;;;;;;;;;;;;;;;;;5099815;27;19916;-79
2022/08/06 15:52:31;;;;;;;;;;;;;;;;;;5116427;28;19930;-79
2022/08/06 15:54:59;;;;;;;;;;;;;;;;;;5099601;28;21564;-78
2022/08/06 15:57:25;;;;;;;;;;;;;;;;;;5134972;27;19972;-78
2022/08/06 15:59:50;;;;;;;;;;;;;;;;;;5134882;27;19923;-78
2022/08/06 16:02:15;;;;;;;;;;;;;;;;;;5099746;27;19920;-78
2022/08/06 16:04:40;;;;;;;;;;;;;;;;;;5099410;27;19911;-78
2022/08/06 16:07:06;;;;;;;;;;;;;;;;;;5116549;28;20022;-78
2022/08/06 16:09:33;;;;;;;;;;;;;;;;;;5116655;28;20010;-78
2022/08/06 16:11:58;;;;;;;;;;;;;;;;;;5116544;28;19942;-79
2022/08/06 16:14:23;;;;;;;;;;;;;;;;;;5099351;28;20345;-79
2022/08/06 16:16:49;;;;;;;;;;;;;;;;;;5099418;28;19912;-78
2022/08/06 16:19:14;;;;;;;;;;;;;;;;;;5116274;28;19961;-78
2022/08/06 16:21:39;;;;;;;;;;;;;;;;;;5134441;28;20088;-77
2022/08/06 16:24:05;;;;;;;;;;;;;;;;;;5134932;28;19958;-77
2022/08/06 16:26:30;;;;;;;;;;;;;;;;;;5135108;28;19926;-77
2022/08/06 16:28:55;;;;;;;;;;;;;;;;;;5099289;28;20387;-78
2022/08/06 16:31:20;;;;;;;;;;;;;;;;;;5099221;28;19923;-78
2022/08/06 16:33:46;;;;;;;;;;;;;;;;;;5116169;28;19923;-78
2022/08/06 16:36:11;;;;;;;;;;;;;;;;;;5134555;28;19915;-79
2022/08/06 16:38:36;;;;;;;;;;;;;;;;;;5099281;28;19916;-79
2022/08/06 16:41:01;;;;;;;;;;;;;;;;;;5134871;28;20306;-79
2022/08/06 16:43:27;;;;;;;;;;;;;;;;;;5099232;28;20385;-79
2022/08/06 16:45:52;;;;;;;;;;;;;;;;;;5116136;28;19915;-79
2022/08/06 16:48:18;;;;;;;;;;;;;;;;;;5138418;27;19915;-79
2022/08/06 16:50:43;;;;;;;;;;;;;;;;;;5103180;27;19912;-79
2022/08/06 16:53:09;;;;;;;;;;;;;;;;;;5116342;28;19968;-79